createdAt,value
2019-04-27T00:04:38.904Z,1022.5
2019-04-27T00:10:13.482Z,1022.5
2019-04-27T00:15:44.263Z,1022.5
2019-04-27T00:21:17.016Z,1022.5
2019-04-27T00:26:49.752Z,1022.5
2019-04-27T00:32:23.102Z,1022.5
2019-04-27T00:37:55.093Z,1022.4
2019-04-27T00:43:27.810Z,1022.4
2019-04-27T00:49:00.517Z,1022.3
2019-04-27T00:54:33.958Z,1022.2
2019-04-27T01:00:05.940Z,1022.1
2019-04-27T01:05:38.603Z,1022.1
2019-04-27T01:11:11.305Z,1022.1
2019-04-27T01:16:44.066Z,1022.1
2019-04-27T01:22:16.794Z,1022
2019-04-27T01:27:49.508Z,1021.9
2019-04-27T01:33:22.209Z,1021.9
2019-04-27T01:38:54.865Z,1021.9
2019-04-27T01:44:29.336Z,1021.9
2019-04-27T01:50:00.326Z,1021.9
2019-04-27T01:55:33.079Z,1021.9
2019-04-27T02:01:05.649Z,1021.9
2019-04-27T02:06:38.596Z,1021.8
2019-04-27T02:12:11.104Z,1021.9
2019-04-27T02:17:43.766Z,1021.9
2019-04-27T02:23:16.478Z,1021.8
2019-04-27T02:28:49.590Z,1021.8
2019-04-27T02:34:21.865Z,1021.8
2019-04-27T02:39:54.593Z,1021.9
2019-04-27T02:45:30.110Z,1021.9
2019-04-27T02:51:00.039Z,1021.9
2019-04-27T02:56:32.572Z,1021.8
2019-04-27T03:02:05.158Z,1021.8
2019-04-27T03:07:39.796Z,1021.7
2019-04-27T03:13:11.190Z,1021.6
2019-04-27T03:18:43.257Z,1021.6
2019-04-27T03:24:15.970Z,1021.6
2019-04-27T03:29:49.836Z,1021.5
2019-04-27T03:35:22.910Z,1021.5
2019-04-27T03:40:54.166Z,1021.5
2019-04-27T03:46:26.886Z,1021.4
2019-04-27T03:52:00.219Z,1021.4
2019-04-27T03:57:32.314Z,1021.4
2019-04-27T04:03:04.973Z,1021.4
2019-04-27T04:08:39.653Z,1021.5
2019-04-27T04:14:10.413Z,1021.4
2019-04-27T04:19:51.771Z,1021.4
2019-04-27T04:25:17.240Z,1021.4
2019-04-27T04:30:50.823Z,1021.5
2019-04-27T04:36:24.376Z,1021.6
2019-04-27T04:41:59.639Z,1021.5
2019-04-27T04:47:32.746Z,1021.5
2019-04-27T04:53:04.891Z,1021.6
2019-04-27T04:58:39.220Z,1021.6
2019-04-27T05:04:12.005Z,1021.8
2019-04-27T05:09:45.556Z,1021.7
2019-04-27T05:15:20.657Z,1021.7
2019-04-27T05:20:52.733Z,1021.8
2019-04-27T05:26:26.265Z,1021.9
2019-04-27T05:32:01.172Z,1021.9
2019-04-27T05:37:33.444Z,1022
2019-04-27T05:43:02.533Z,1022
2019-04-27T05:48:36.061Z,1021.9
2019-04-27T05:54:09.733Z,1022.1
2019-04-27T05:59:43.238Z,1022.1
2019-04-27T06:05:18.778Z,1022
2019-04-27T06:10:45.958Z,1022.2
2019-04-27T06:16:19.618Z,1022.2
2019-04-27T06:21:53.154Z,1022.1
2019-04-27T06:27:30.185Z,1022.2
2019-04-27T06:33:00.318Z,1022.3
2019-04-27T06:38:33.965Z,1022.3
2019-04-27T06:44:09.325Z,1022.3
2019-04-27T06:49:41.104Z,1022.3
2019-04-27T06:55:14.670Z,1022.4
2019-04-27T07:00:49.669Z,1022.3
2019-04-27T07:06:21.928Z,1022.3
2019-04-27T07:11:55.567Z,1022.3
2019-04-27T07:17:29.223Z,1022.3
2019-04-27T07:23:03.148Z,1022.2
2019-04-27T07:28:36.484Z,1022.1
2019-04-27T07:34:10.136Z,1022.1
2019-04-27T07:39:43.764Z,1022.1
2019-04-27T07:45:17.936Z,1022.1
2019-04-27T07:50:51.208Z,1022.1
2019-04-27T07:56:24.922Z,1022.1
2019-04-27T08:01:59.084Z,1022.1
2019-04-27T08:07:32.270Z,1022
2019-04-27T08:13:05.974Z,1022
2019-04-27T08:18:39.681Z,1022
2019-04-27T08:24:13.271Z,1021.8
2019-04-27T08:29:48.590Z,1021.8
2019-04-27T08:35:21.544Z,1021.7
2019-04-27T08:40:54.405Z,1021.7
2019-04-27T08:46:28.599Z,1021.8
2019-04-27T08:52:02.017Z,1021.7
2019-04-27T08:57:35.581Z,1021.6
2019-04-27T09:03:09.556Z,1021.4
2019-04-27T09:08:49.311Z,1021.1
2019-04-27T09:14:21.784Z,1020.8
2019-04-27T09:19:55.631Z,1020.9
2019-04-27T09:25:29.754Z,1021
2019-04-27T09:31:03.677Z,1021
2019-04-27T09:36:37.616Z,1020.9
2019-04-27T09:42:11.836Z,1020.7
2019-04-27T09:47:46.789Z,1020.5
2019-04-27T09:53:19.993Z,1020.4
2019-04-27T09:58:55.820Z,1020.1
2019-04-27T10:04:28.754Z,1019.9
2019-04-27T10:10:03.308Z,1019.9
2019-04-27T10:15:37.850Z,1019.5
2019-04-27T10:21:12.675Z,1019.3
2019-04-27T10:26:47.650Z,1019.3
2019-04-27T10:32:22.513Z,1019.5
2019-04-27T10:37:57.428Z,1019.5
2019-04-27T10:43:36.719Z,1019.6
2019-04-27T10:49:11.511Z,1019.6
2019-04-27T10:54:46.118Z,1019.7
2019-04-27T11:00:20.766Z,1019.8
2019-04-27T11:05:56.943Z,1020
2019-04-27T11:11:29.763Z,1020.2
2019-04-27T11:17:04.091Z,1020.3
2019-04-27T11:22:38.343Z,1020.1
2019-04-27T11:28:12.614Z,1020
2019-04-27T11:33:46.876Z,1019.7
2019-04-27T11:39:21.324Z,1019.7
2019-04-27T11:44:58.190Z,1019.3
2019-04-27T11:50:30.180Z,1019.2
2019-04-27T11:56:04.842Z,1019
2019-04-27T12:01:39.560Z,1018.7
2019-04-27T12:07:14.416Z,1018.3
2019-04-27T12:12:49.694Z,1018.2
2019-04-27T12:18:24.852Z,1018.3
2019-04-27T12:23:59.804Z,1018.5
2019-04-27T12:29:34.690Z,1018.6
2019-04-27T12:35:09.256Z,1018.9
2019-04-27T12:40:43.722Z,1019
2019-04-27T12:46:18.296Z,1019.3
2019-04-27T12:51:52.399Z,1019.3
2019-04-27T12:57:27.610Z,1019.3
2019-04-27T13:03:00.623Z,1019.3
2019-04-27T13:08:35.701Z,1019
2019-04-27T13:14:09.035Z,1018.8
2019-04-27T13:19:43.450Z,1018.6
2019-04-27T13:25:17.871Z,1018.5
2019-04-27T13:30:52.300Z,1018.5
2019-04-27T13:36:26.715Z,1018.6
2019-04-27T13:42:00.835Z,1018.8
2019-04-27T13:47:36.612Z,1019.1
2019-04-27T13:53:08.922Z,1019.5
2019-04-27T13:58:42.844Z,1019.4
2019-04-27T14:04:16.801Z,1019.3
2019-04-27T14:09:46.391Z,1019.2
2019-04-27T14:15:20.330Z,1019.2
2019-04-27T14:20:54.385Z,1019.3
2019-04-27T14:26:28.539Z,1019.2
2019-04-27T14:32:02.436Z,1019.2
2019-04-27T14:37:36.406Z,1019.1
2019-04-27T14:43:10.344Z,1019
2019-04-27T14:48:44.379Z,1018.9
2019-04-27T14:54:18.845Z,1018.8
2019-04-27T14:59:52.457Z,1018.8
2019-04-27T15:05:26.498Z,1018.8
2019-04-27T15:11:00.639Z,1018.9
2019-04-27T15:16:37.760Z,1019
2019-04-27T15:22:12.586Z,1018.9
2019-04-27T15:27:42.954Z,1018.8
2019-04-27T15:33:17.609Z,1018.9
2019-04-27T15:38:53.657Z,1018.9
2019-04-27T15:44:25.276Z,1019
2019-04-27T15:49:59.438Z,1018.9
2019-04-27T15:55:36.758Z,1018.6
2019-04-27T16:01:11.220Z,1018.9
2019-04-27T16:06:42.755Z,1019
2019-04-27T16:12:18.113Z,1019.1
2019-04-27T16:17:55.733Z,1019
2019-04-27T16:23:24.874Z,1019
2019-04-27T16:28:59.147Z,1018.7
2019-04-27T16:34:37.733Z,1018.1
2019-04-27T16:40:10.719Z,1018.4
2019-04-27T16:45:43.157Z,1018.6
2019-04-27T16:51:18.390Z,1018.8
2019-04-27T16:56:58.208Z,1019
2019-04-27T17:02:26.112Z,1019.1
2019-04-27T17:08:00.241Z,1019.3
2019-04-27T17:13:34.422Z,1019.7
2019-04-27T17:30:19.500Z,1020.7
2019-04-27T17:35:53.206Z,1020.7
2019-04-27T17:41:28.265Z,1020.7
2019-04-27T17:47:01.343Z,1020.9
2019-04-27T17:52:37.784Z,1021.1
2019-04-27T17:58:09.862Z,1021.1
2019-04-27T18:03:43.898Z,1021
2019-04-27T18:09:21.995Z,1021.1
2019-04-27T18:14:55.678Z,1021.4
2019-04-27T18:20:29.500Z,1021.2
2019-04-27T18:26:03.109Z,1021.1
2019-04-27T18:31:38.300Z,1021.4
2019-04-27T18:37:10.484Z,1021.7
2019-04-27T18:42:44.105Z,1021.8
2019-04-27T18:48:18.681Z,1021.9
2019-04-27T18:53:54.069Z,1022.2
2019-04-27T18:59:24.908Z,1022.4
2019-04-27T19:04:59.508Z,1022.5
2019-04-27T19:10:32.312Z,1022.5
2019-04-27T19:16:05.831Z,1022.5
2019-04-27T19:21:39.425Z,1022.8
2019-04-27T19:27:17.722Z,1022.7
2019-04-27T19:32:46.733Z,1022.9
2019-04-27T19:38:20.335Z,1023
2019-04-27T19:43:54.008Z,1023
2019-04-27T19:49:29.349Z,1023.1
2019-04-27T19:55:01.149Z,1023.3
2019-04-27T20:00:34.579Z,1023.5
2019-04-27T20:06:08.131Z,1023.6
2019-04-27T20:11:41.638Z,1023.6
2019-04-27T20:17:15.000Z,1023.9
2019-04-27T20:22:48.416Z,1024
2019-04-27T20:28:23.056Z,1024.1
2019-04-27T20:33:55.499Z,1024.4
2019-04-27T20:39:29.220Z,1025.8
2019-04-27T20:45:02.677Z,1026.2
2019-04-27T20:50:35.846Z,1026.1
2019-04-27T20:56:08.989Z,1025.9
2019-04-27T21:01:41.800Z,1025.8
2019-04-27T21:07:14.706Z,1025.4
2019-04-27T21:12:47.590Z,1025.5
2019-04-27T21:18:21.679Z,1025.2
2019-04-27T21:46:09.476Z,1024.9
2019-04-27T21:51:42.697Z,1024.6
2019-04-27T21:57:15.873Z,1025
2019-04-27T22:02:51.030Z,1025.2
2019-04-27T22:08:22.090Z,1025.2
2019-04-27T22:13:55.307Z,1025.1
2019-04-27T22:19:28.467Z,1025.4
2019-04-27T22:25:01.713Z,1025.4
2019-04-27T22:30:34.800Z,1025.6
2019-04-27T22:36:10.799Z,1025.5
2019-04-27T22:41:41.730Z,1025.4
2019-04-27T22:47:14.437Z,1025.5
2019-04-27T22:52:47.387Z,1025.5
2019-04-27T22:58:21.761Z,1025.5
2019-04-27T23:03:53.768Z,1025.6
2019-04-27T23:09:26.850Z,1025.6
2019-04-27T23:14:59.865Z,1025.5
2019-04-27T23:20:33.104Z,1025.4
2019-04-27T23:26:06.281Z,1025.6
2019-04-27T23:31:40.773Z,1025.6
2019-04-27T23:37:12.701Z,1025.4
2019-04-27T23:42:46.033Z,1025.3
2019-04-27T23:48:19.166Z,1025.1
2019-04-27T23:53:52.381Z,1025.3
2019-04-27T23:59:25.540Z,1025.4
